Time;durP1;ratioP1;P1;durP2;ratioP2;P2;SDS_P1;SDS_P2;PMS_P1;PMS_P2;Temp;Humidity;BMP_temperature;BMP_pressure;BME280_temperature;BME280_humidity;BME280_pressure;Samples;Min_cycle;Max_cycle;Signal;HPM_P1;HPM_P2
2022/09/21 00:02:15;;;;;;;6.90;2.95;;;8.30;99.90;;;;;;4989382;28;20497;-78
2022/09/21 00:04:40;;;;;;;3.35;1.98;;;8.60;99.90;;;;;;5010994;28;20349;-77
2022/09/21 00:07:06;;;;;;;5.97;2.70;;;8.40;99.90;;;;;;5012662;28;20078;-77
2022/09/21 00:09:32;;;;;;;3.63;2.92;;;8.50;99.90;;;;;;5011398;28;20046;-76
2022/09/21 00:11:57;;;;;;;9.93;4.07;;;8.50;99.90;;;;;;5012655;28;20045;-77
2022/09/21 00:14:24;;;;;;;11.45;3.20;;;8.50;99.90;;;;;;5010870;28;20507;-78
2022/09/21 00:16:49;;;;;;;4.45;3.47;;;8.30;99.90;;;;;;5011845;28;20061;-79
2022/09/21 00:19:16;;;;;;;6.70;3.08;;;8.50;99.90;;;;;;5010174;28;20053;-77
2022/09/21 00:21:41;;;;;;;6.45;3.10;;;8.40;99.90;;;;;;5012426;28;20385;-77
2022/09/21 00:24:07;;;;;;;8.48;3.60;;;8.50;99.90;;;;;;5010262;28;20057;-77
2022/09/21 00:26:33;;;;;;;7.28;3.00;;;8.40;99.90;;;;;;5011837;28;20129;-76
2022/09/21 00:29:01;;;;;;;4.80;2.67;;;8.30;99.90;;;;;;5012366;28;20037;-78
2022/09/21 00:31:29;;;;;;;4.78;2.75;;;8.50;99.90;;;;;;4992204;28;20098;-78
2022/09/21 00:33:57;;;;;;;8.25;3.05;;;8.50;99.90;;;;;;4990387;28;20485;-78
2022/09/21 00:36:24;;;;;;;3.80;2.20;;;8.10;99.90;;;;;;4991977;28;20066;-76
2022/09/21 00:38:52;;;;;;;6.88;2.90;;;8.10;99.90;;;;;;4996046;28;20374;-74
2022/09/21 00:41:18;;;;;;;5.32;2.72;;;8.30;99.90;;;;;;5010234;28;20045;-79
2022/09/21 00:44:07;;;;;;;6.68;2.78;;;8.30;99.90;;;;;;5011860;28;20434;-77
2022/09/21 00:46:35;;;;;;;2.67;2.20;;;8.20;99.90;;;;;;5006003;28;20042;-78
2022/09/21 00:49:00;;;;;;;6.00;2.60;;;8.10;99.90;;;;;;5009877;28;20053;-78
2022/09/21 00:51:26;;;;;;;6.43;3.20;;;8.10;99.90;;;;;;5011500;28;20046;-77
2022/09/21 00:54:01;;;;;;;5.47;2.83;;;8.20;99.90;;;;;;5011945;28;20395;-78
2022/09/21 00:56:28;;;;;;;8.07;3.47;;;8.30;99.90;;;;;;5010962;28;20080;-78
2022/09/21 00:58:54;;;;;;;4.53;2.72;;;8.10;99.90;;;;;;5009862;28;20046;-78
2022/09/21 01:01:21;;;;;;;24.85;3.55;;;8.10;99.90;;;;;;5011305;28;20044;-77
2022/09/21 01:03:47;;;;;;;6.65;3.53;;;8.20;99.90;;;;;;5010425;28;20087;-78
2022/09/21 01:06:16;;;;;;;4.65;3.25;;;7.90;99.90;;;;;;5010920;28;20061;-77
2022/09/21 01:08:45;;;;;;;6.03;2.63;;;8.00;99.90;;;;;;5009906;28;20183;-77
2022/09/21 01:11:25;;;;;;;5.45;2.67;;;7.80;99.90;;;;;;5010803;28;20050;-77
2022/09/21 01:13:59;;;;;;;3.28;2.47;;;7.90;99.90;;;;;;5009622;28;20107;-78
2022/09/21 01:16:37;;;;;;;4.45;3.10;;;8.10;99.90;;;;;;5011182;28;20050;-76
2022/09/21 01:19:33;;;;;;;5.15;3.08;;;8.00;99.90;;;;;;5009366;28;20046;-77
2022/09/21 01:22:06;;;;;;;3.53;1.83;;;8.10;99.90;;;;;;5011226;28;20085;-76
2022/09/21 01:24:52;;;;;;;4.50;3.03;;;7.80;99.90;;;;;;5006038;28;20417;-75
2022/09/21 01:27:33;;;;;;;6.15;2.72;;;7.80;99.90;;;;;;4998247;28;20137;-77
2022/09/21 01:30:08;;;;;;;7.82;2.92;;;8.00;99.90;;;;;;4999537;28;20093;-77
2022/09/21 01:32:39;;;;;;;6.32;2.33;;;8.00;99.90;;;;;;4991344;28;20129;-76
2022/09/21 01:35:20;;;;;;;5.53;2.63;;;8.00;99.90;;;;;;4992406;28;20649;-76
2022/09/21 01:38:01;;;;;;;5.93;3.05;;;7.80;99.90;;;;;;4998175;28;20049;-78
2022/09/21 01:40:37;;;;;;;7.05;3.35;;;7.80;99.90;;;;;;4997984;28;20054;-78
2022/09/21 01:43:06;;;;;;;6.55;3.03;;;7.70;99.90;;;;;;4991934;28;20104;-77
2022/09/21 01:45:42;;;;;;;13.55;3.38;;;7.70;99.90;;;;;;5010464;28;20081;-75
2022/09/21 01:48:08;;;;;;;4.65;2.42;;;7.90;99.90;;;;;;5010089;28;20459;-77
2022/09/21 01:50:40;;;;;;;6.15;2.30;;;7.80;99.90;;;;;;4996083;28;20050;-78
2022/09/21 01:53:12;;;;;;;10.90;2.63;;;7.80;99.90;;;;;;5002155;28;20148;-77
2022/09/21 01:55:50;;;;;;;4.30;1.80;;;7.70;99.90;;;;;;5009429;28;20049;-77
2022/09/21 01:58:34;;;;;;;3.15;2.28;;;7.50;99.90;;;;;;5008772;28;20093;-76
2022/09/21 02:01:01;;;;;;;9.73;3.38;;;7.60;99.90;;;;;;5011206;28;20050;-75
2022/09/21 02:03:40;;;;;;;6.25;2.38;;;7.60;99.90;;;;;;5011151;28;20052;-77
2022/09/21 02:06:08;;;;;;;2.15;1.80;;;7.40;99.90;;;;;;5010486;28;20050;-77
2022/09/21 02:08:35;;;;;;;9.52;2.78;;;7.60;99.90;;;;;;5010666;28;20046;-77
2022/09/21 02:11:03;;;;;;;5.95;2.75;;;7.70;99.90;;;;;;5010003;28;20050;-78
2022/09/21 02:13:38;;;;;;;5.35;2.47;;;7.40;99.90;;;;;;5010453;28;20096;-77
2022/09/21 02:16:06;;;;;;;6.75;2.80;;;7.50;99.90;;;;;;5009986;28;20046;-79
2022/09/21 02:18:57;;;;;;;6.03;2.53;;;7.30;99.90;;;;;;5010034;28;20042;-77
2022/09/21 02:21:32;;;;;;;2.75;1.98;;;7.30;99.90;;;;;;5009979;28;20111;-78
2022/09/21 02:24:33;;;;;;;3.75;1.75;;;7.30;99.90;;;;;;5010511;28;20053;-77
2022/09/21 02:27:06;;;;;;;5.35;2.05;;;7.40;99.90;;;;;;4948243;28;20055;-77
2022/09/21 02:29:44;;;;;;;3.25;1.77;;;7.40;99.90;;;;;;4999106;28;20440;-77
2022/09/21 02:32:55;;;;;;;2.55;1.73;;;7.40;99.90;;;;;;4997237;28;21248;-75
2022/09/21 02:35:20;;;;;;;2.25;1.40;;;7.20;99.90;;;;;;5007168;28;20050;-78
2022/09/21 02:37:48;;;;;;;6.38;2.35;;;7.20;99.90;;;;;;5007939;28;20046;-79
2022/09/21 02:40:29;;;;;;;4.68;1.92;;;7.40;99.90;;;;;;5007637;28;20120;-78
2022/09/21 02:43:04;;;;;;;3.03;1.48;;;7.20;99.90;;;;;;5008880;28;20054;-76
2022/09/21 02:45:36;;;;;;;2.58;1.80;;;7.30;99.90;;;;;;4990149;28;20041;-76
2022/09/21 02:48:07;;;;;;;2.15;1.50;;;7.30;99.90;;;;;;5008913;28;20095;-76
2022/09/21 02:50:45;;;;;;;5.72;2.17;;;7.40;99.90;;;;;;5007142;28;20117;-76
2022/09/21 02:53:14;;;;;;;3.95;2.22;;;7.50;99.90;;;;;;5006000;28;20121;-76
2022/09/21 02:55:41;;;;;;;4.00;2.03;;;7.20;99.90;;;;;;5009088;28;20050;-79
2022/09/21 02:58:11;;;;;;;3.50;1.75;;;7.30;99.90;;;;;;5008690;28;20081;-77
2022/09/21 03:00:36;;;;;;;5.30;1.77;;;7.30;99.90;;;;;;5007642;28;20088;-77
2022/09/21 03:03:21;;;;;;;11.68;1.77;;;7.20;99.90;;;;;;5010290;28;20408;-78
2022/09/21 03:05:49;;;;;;;3.47;1.38;;;6.90;99.90;;;;;;5008832;28;20060;-77
2022/09/21 03:08:16;;;;;;;2.90;2.08;;;7.00;99.90;;;;;;5010071;28;20054;-78
2022/09/21 03:10:41;;;;;;;3.22;1.20;;;7.00;99.90;;;;;;5010388;28;20393;-77
2022/09/21 03:13:08;;;;;;;10.80;2.85;;;7.00;99.90;;;;;;5010568;28;20057;-77
2022/09/21 03:15:38;;;;;;;5.05;1.80;;;7.10;99.90;;;;;;5011021;28;20046;-77
2022/09/21 03:18:05;;;;;;;3.05;1.58;;;6.90;99.90;;;;;;5010701;28;20049;-80
2022/09/21 03:20:32;;;;;;;3.67;1.98;;;7.10;99.90;;;;;;5007731;28;20120;-78
2022/09/21 03:22:59;;;;;;;5.53;1.40;;;7.00;99.90;;;;;;5005173;28;20477;-75
2022/09/21 03:25:25;;;;;;;2.03;1.30;;;6.90;99.90;;;;;;5009827;28;20050;-75
2022/09/21 03:27:52;;;;;;;2.17;1.42;;;7.00;99.90;;;;;;5010680;28;20491;-79
2022/09/21 03:30:20;;;;;;;4.95;1.77;;;7.00;99.90;;;;;;5008114;28;20081;-77
2022/09/21 03:32:49;;;;;;;3.95;1.58;;;6.70;99.90;;;;;;5003519;28;20073;-75
2022/09/21 03:35:15;;;;;;;4.35;2.63;;;6.60;99.90;;;;;;5000888;28;20057;-75
2022/09/21 03:37:41;;;;;;;4.10;1.90;;;6.60;99.90;;;;;;5009772;28;20083;-74
2022/09/21 03:40:07;;;;;;;2.80;1.55;;;6.90;99.90;;;;;;5012215;28;20069;-75
2022/09/21 03:42:33;;;;;;;3.38;1.85;;;6.90;99.90;;;;;;5011641;28;20061;-77
2022/09/21 03:44:58;;;;;;;4.18;1.33;;;6.90;99.90;;;;;;5012980;28;20042;-77
2022/09/21 03:47:24;;;;;;;3.85;1.73;;;6.60;99.90;;;;;;5010933;28;20157;-77
2022/09/21 03:49:50;;;;;;;2.63;2.13;;;6.70;99.90;;;;;;5011630;28;20046;-74
2022/09/21 03:52:15;;;;;;;17.70;3.38;;;6.70;99.90;;;;;;5012125;28;20042;-76
2022/09/21 03:54:41;;;;;;;3.85;1.80;;;6.80;99.90;;;;;;5012855;28;20049;-75
2022/09/21 03:57:07;;;;;;;2.80;1.60;;;6.60;99.90;;;;;;5012808;28;20125;-76
2022/09/21 03:59:34;;;;;;;3.50;1.90;;;6.80;99.90;;;;;;5011576;28;20381;-75
2022/09/21 04:02:00;;;;;;;3.75;1.90;;;7.00;99.90;;;;;;4998186;28;20058;-77
2022/09/21 04:04:25;;;;;;;2.72;1.73;;;6.90;99.90;;;;;;4990899;28;20050;-77
2022/09/21 04:06:51;;;;;;;5.22;2.67;;;6.70;99.90;;;;;;4993400;28;20137;-77
2022/09/21 04:09:17;;;;;;;7.18;3.03;;;6.90;99.90;;;;;;4992954;28;20050;-76
2022/09/21 04:11:44;;;;;;;3.65;2.25;;;6.60;99.90;;;;;;5009637;28;20142;-77
2022/09/21 04:14:13;;;;;;;3.63;1.80;;;6.70;99.90;;;;;;5011587;28;20077;-76
2022/09/21 04:16:39;;;;;;;3.15;2.03;;;6.90;99.90;;;;;;5011879;28;20057;-77
2022/09/21 04:19:04;;;;;;;5.05;2.30;;;7.00;99.90;;;;;;5010933;28;20042;-76
2022/09/21 04:21:30;;;;;;;3.50;2.20;;;6.90;99.90;;;;;;4996306;28;20485;-75
2022/09/21 04:23:56;;;;;;;3.75;2.08;;;6.80;99.90;;;;;;4992488;28;20069;-76
2022/09/21 04:26:26;;;;;;;5.00;3.05;;;6.90;99.90;;;;;;5001547;28;20399;-77
2022/09/21 04:28:52;;;;;;;;;;;7.00;99.90;;;;;;5012477;28;20053;-77
2022/09/21 04:31:19;;;;;;;4.47;2.88;;;6.90;99.90;;;;;;5011127;28;19921;-76
2022/09/21 04:33:48;;;;;;;4.68;2.92;;;7.00;99.90;;;;;;5009241;28;20038;-74
2022/09/21 04:36:14;;;;;;;17.10;3.50;;;6.90;99.90;;;;;;5010759;28;20082;-75
2022/09/21 04:38:40;;;;;;;6.15;2.45;;;7.00;99.90;;;;;;5010608;28;20307;-73
2022/09/21 04:41:05;;;;;;;3.58;2.67;;;6.80;99.90;;;;;;5010049;28;20473;-77
2022/09/21 04:43:32;;;;;;;7.88;4.32;;;6.90;99.90;;;;;;5010414;28;20153;-77
2022/09/21 04:45:57;;;;;;;17.27;9.15;;;6.90;99.90;;;;;;5011475;28;20046;-77
2022/09/21 04:48:23;;;;;;;15.13;5.63;;;6.90;99.90;;;;;;5008740;28;20042;-76
2022/09/21 04:50:50;;;;;;;9.02;4.68;;;6.80;99.90;;;;;;5010839;28;20136;-77
2022/09/21 04:53:16;;;;;;;4.72;2.75;;;6.80;99.90;;;;;;5010471;28;20049;-79
2022/09/21 04:55:44;;;;;;;6.70;4.10;;;6.50;99.90;;;;;;5011219;28;20125;-77
2022/09/21 04:58:09;;;;;;;8.63;2.60;;;6.80;99.90;;;;;;5011661;28;20504;-75
2022/09/21 05:00:35;;;;;;;4.97;2.17;;;6.40;99.90;;;;;;5011379;28;20038;-76
2022/09/21 05:03:01;;;;;;;7.43;2.67;;;6.70;99.90;;;;;;5012319;28;20081;-77
2022/09/21 05:05:27;;;;;;;5.88;2.72;;;6.70;99.90;;;;;;5011093;28;20492;-78
2022/09/21 05:07:53;;;;;;;6.20;3.08;;;6.70;99.90;;;;;;5012070;28;20475;-78
2022/09/21 05:10:18;;;;;;;6.63;3.53;;;6.70;99.90;;;;;;5008780;28;20190;-77
2022/09/21 05:12:45;;;;;;;7.60;2.72;;;6.70;99.90;;;;;;5011969;28;20080;-77
2022/09/21 05:15:11;;;;;;;6.32;2.50;;;6.40;99.90;;;;;;5011612;28;20405;-77
2022/09/21 05:17:36;;;;;;;6.60;2.17;;;6.40;99.90;;;;;;5009971;28;20053;-77
2022/09/21 05:20:03;;;;;;;5.43;3.13;;;6.40;99.90;;;;;;5010181;28;20045;-77
2022/09/21 05:22:28;;;;;;;4.47;2.35;;;6.70;99.90;;;;;;5009517;28;20084;-76
2022/09/21 05:24:54;;;;;;;9.85;3.55;;;6.60;99.90;;;;;;5010287;28;20506;-77
2022/09/21 05:27:20;;;;;;;5.22;2.28;;;6.60;99.90;;;;;;5010398;28;20049;-75
2022/09/21 05:29:46;;;;;;;5.25;2.70;;;6.60;99.90;;;;;;5009150;28;20104;-76
2022/09/21 05:32:20;;;;;;;5.43;2.42;;;6.60;99.90;;;;;;4990762;28;20062;-74
2022/09/21 05:35:12;;;;;;;6.03;2.88;;;6.50;99.90;;;;;;4988436;28;20404;-76
2022/09/21 05:38:00;;;;;;;3.47;2.13;;;6.60;99.90;;;;;;4968008;28;20408;-76
2022/09/21 05:40:26;;;;;;;5.93;2.03;;;6.60;99.90;;;;;;4996631;28;20045;-76
2022/09/21 05:42:52;;;;;;;4.18;3.20;;;6.20;99.90;;;;;;5010356;28;20071;-76
2022/09/21 05:45:19;;;;;;;10.07;3.03;;;6.60;99.90;;;;;;5009747;28;20125;-76
2022/09/21 05:48:10;;;;;;;5.97;2.67;;;6.70;99.90;;;;;;5008858;28;20038;-76
2022/09/21 05:50:50;;;;;;;7.97;3.08;;;6.40;99.90;;;;;;5009525;28;20108;-76
2022/09/21 05:53:28;;;;;;;9.52;3.45;;;6.40;99.90;;;;;;5008537;28;20046;-76
2022/09/21 05:56:10;;;;;;;4.90;2.50;;;6.60;99.90;;;;;;5010691;28;20404;-77
2022/09/21 05:59:04;;;;;;;9.73;2.63;;;6.70;99.90;;;;;;5010224;28;20038;-76
2022/09/21 06:02:04;;;;;;;5.38;2.58;;;6.80;99.90;;;;;;4998845;28;20088;-74
2022/09/21 06:04:30;;;;;;;8.90;3.55;;;6.60;99.90;;;;;;4989127;28;20573;-77
2022/09/21 06:06:55;;;;;;;5.30;3.10;;;6.90;99.90;;;;;;4996863;28;20071;-82
2022/09/21 06:09:21;;;;;;;8.73;3.80;;;6.90;99.90;;;;;;5008657;28;20057;-75
2022/09/21 06:11:47;;;;;;;8.18;3.30;;;6.60;99.90;;;;;;5009858;28;20440;-80
2022/09/21 06:14:12;;;;;;;6.68;2.42;;;6.70;99.90;;;;;;5009514;28;20164;-74
2022/09/21 06:16:40;;;;;;;24.02;3.65;;;7.00;99.90;;;;;;5009736;28;20093;-76
2022/09/21 06:19:05;;;;;;;14.38;3.28;;;6.80;99.90;;;;;;5008941;28;20057;-74
2022/09/21 06:21:31;;;;;;;4.78;2.53;;;6.80;99.90;;;;;;5007914;28;20042;-75
2022/09/21 06:23:57;;;;;;;7.70;3.67;;;7.10;99.90;;;;;;5009244;28;20523;-77
2022/09/21 06:26:23;;;;;;;4.45;3.20;;;6.90;99.90;;;;;;5009325;28;20046;-77
2022/09/21 06:28:48;;;;;;;3.80;2.08;;;7.10;99.90;;;;;;5007585;28;20034;-74
2022/09/21 06:31:23;;;;;;;5.57;3.10;;;7.00;99.90;;;;;;5003515;28;20109;-74
2022/09/21 06:33:48;;;;;;;6.43;3.15;;;7.10;99.90;;;;;;5006897;28;20052;-76
2022/09/21 06:36:16;;;;;;;4.18;2.58;;;7.40;99.90;;;;;;5005308;28;20050;-76
2022/09/21 06:38:42;;;;;;;4.70;2.30;;;7.20;99.90;;;;;;5010580;28;20050;-76
2022/09/21 06:41:08;;;;;;;4.18;2.92;;;7.40;99.90;;;;;;5007821;28;20106;-76
2022/09/21 06:43:33;;;;;;;3.22;2.53;;;7.50;99.90;;;;;;5008493;28;20046;-75
2022/09/21 06:46:01;;;;;;;10.38;3.53;;;7.60;99.90;;;;;;4992886;28;20653;-76
2022/09/21 06:48:28;;;;;;;14.45;5.15;;;7.80;99.90;;;;;;5003819;28;20035;-76
2022/09/21 06:51:01;;;;;;;7.75;4.18;;;7.60;99.90;;;;;;4988074;28;20042;-76
2022/09/21 06:53:28;;;;;;;5.90;3.92;;;8.00;99.90;;;;;;5001104;28;20053;-75
2022/09/21 06:56:03;;;;;;;7.85;4.32;;;8.00;99.90;;;;;;5007375;28;20495;-76
2022/09/21 06:58:30;;;;;;;12.40;4.63;;;8.20;99.90;;;;;;5006283;28;20045;-74
2022/09/21 07:00:56;;;;;;;5.93;3.53;;;8.10;99.90;;;;;;5009332;28;20046;-76
2022/09/21 07:03:21;;;;;;;8.32;3.38;;;8.40;99.90;;;;;;5006698;28;20446;-75
2022/09/21 07:05:48;;;;;;;4.60;2.70;;;8.30;99.90;;;;;;5009958;28;20053;-79
2022/09/21 07:08:14;;;;;;;8.77;4.47;;;8.60;99.90;;;;;;5011511;28;20034;-76
2022/09/21 07:10:39;;;;;;;7.82;3.17;;;9.00;99.90;;;;;;5009202;28;20168;-78
2022/09/21 07:13:08;;;;;;;5.82;2.85;;;8.80;99.90;;;;;;5014086;28;20042;-75
2022/09/21 07:15:34;;;;;;;7.55;3.47;;;9.00;99.90;;;;;;5017455;28;20054;-77
2022/09/21 07:17:59;;;;;;;11.80;3.50;;;9.30;99.90;;;;;;5016872;28;20076;-76
2022/09/21 07:20:25;;;;;;;5.32;2.90;;;9.50;99.90;;;;;;5013817;28;20053;-77
2022/09/21 07:22:51;;;;;;;5.85;2.90;;;9.70;99.90;;;;;;5013244;28;20133;-74
2022/09/21 07:25:16;;;;;;;5.63;2.63;;;9.90;99.90;;;;;;5000972;28;20104;-75
2022/09/21 07:27:42;;;;;;;4.97;2.40;;;9.80;99.90;;;;;;4994647;28;20521;-77
2022/09/21 07:30:08;;;;;;;5.45;2.83;;;10.10;99.90;;;;;;5013413;28;20068;-76
2022/09/21 07:32:35;;;;;;;5.65;3.10;;;10.30;99.90;;;;;;5006879;28;20050;-78
2022/09/21 07:35:01;;;;;;;4.22;2.15;;;10.30;99.90;;;;;;5010452;28;20057;-75
2022/09/21 07:37:27;;;;;;;6.43;2.20;;;10.40;99.90;;;;;;5010373;28;20408;-76
2022/09/21 07:39:53;;;;;;;3.95;2.15;;;10.40;99.90;;;;;;5009773;28;20042;-76
2022/09/21 07:42:21;;;;;;;2.75;1.88;;;10.70;99.90;;;;;;5009878;28;20046;-74
2022/09/21 07:44:47;;;;;;;6.32;2.45;;;10.80;99.90;;;;;;5010383;28;20045;-75
2022/09/21 07:47:14;;;;;;;4.00;2.10;;;11.10;99.90;;;;;;5010167;28;20045;-74
2022/09/21 07:49:40;;;;;;;3.72;2.20;;;11.00;99.90;;;;;;5009227;28;20148;-74
2022/09/21 07:52:07;;;;;;;6.82;2.80;;;11.10;99.90;;;;;;5009401;28;20045;-75
2022/09/21 07:54:34;;;;;;;3.95;2.60;;;11.50;99.90;;;;;;5010481;28;20407;-74
2022/09/21 07:59:44;;;;;;;7.93;2.17;;;11.70;99.90;;;;;;5008283;28;20060;-73
2022/09/21 08:02:11;;;;;;;10.10;2.58;;;11.50;99.90;;;;;;5006274;28;20123;-74
2022/09/21 08:04:37;;;;;;;5.30;2.03;;;11.90;99.90;;;;;;4995093;28;20447;-74
2022/09/21 08:07:03;;;;;;;8.45;2.47;;;11.80;99.90;;;;;;5008252;28;20104;-75
2022/09/21 08:09:29;;;;;;;4.97;2.22;;;11.90;99.90;;;;;;5012176;28;20045;-75
2022/09/21 08:11:55;;;;;;;2.72;1.70;;;12.30;99.90;;;;;;5010110;28;20046;-74
2022/09/21 08:14:22;;;;;;;6.55;2.20;;;12.10;99.90;;;;;;4993961;28;20046;-73
2022/09/21 08:16:47;;;;;;;6.88;1.70;;;12.40;99.90;;;;;;5011972;28;20046;-75
2022/09/21 08:19:16;;;;;;;3.55;1.40;;;12.40;99.90;;;;;;5011418;28;20477;-73
2022/09/21 08:21:42;;;;;;;4.32;1.02;;;12.70;99.90;;;;;;5017092;28;20072;-75
2022/09/21 08:24:08;;;;;;;6.55;1.88;;;12.80;99.90;;;;;;5011689;28;20362;-75
2022/09/21 08:26:35;;;;;;;4.38;1.45;;;12.70;99.90;;;;;;5009743;28;20120;-73
2022/09/21 08:29:00;;;;;;;3.83;1.10;;;12.90;99.90;;;;;;5009795;28;20600;-74
2022/09/21 08:31:26;;;;;;;4.95;1.80;;;12.90;99.90;;;;;;5009977;28;20125;-73
2022/09/21 08:33:54;;;;;;;4.38;1.70;;;13.30;99.90;;;;;;5011743;28;20046;-75
2022/09/21 08:36:20;;;;;;;3.40;1.40;;;13.30;99.90;;;;;;5013889;28;20491;-73
2022/09/21 08:38:46;;;;;;;3.88;1.48;;;13.50;99.90;;;;;;5009584;28;20077;-74
2022/09/21 08:41:19;;;;;;;9.32;1.45;;;13.40;99.90;;;;;;5009055;28;20042;-73
2022/09/21 08:43:54;;;;;;;5.03;1.13;;;13.50;99.90;;;;;;5006577;28;20084;-73
2022/09/21 08:46:22;;;;;;;8.88;1.30;;;13.70;99.90;;;;;;4996115;28;20085;-73
2022/09/21 08:49:25;;;;;;;4.20;0.75;;;13.90;99.90;;;;;;5081130;22;20252;-74
2022/09/21 08:51:58;;;;;;;6.40;1.05;;;14.00;99.90;;;;;;4986172;28;20054;-74
2022/09/21 08:54:42;;;;;;;7.00;1.17;;;13.90;99.90;;;;;;4987064;28;20446;-74
2022/09/21 08:57:12;;;;;;;4.35;1.58;;;14.00;99.90;;;;;;4984634;28;20058;-73
2022/09/21 08:59:40;;;;;;;;;;;14.20;99.90;;;;;;4991784;28;20043;-74
2022/09/21 09:02:39;;;;;;;3.72;1.45;;;14.10;99.90;;;;;;4987340;28;20034;-73
2022/09/21 09:05:25;;;;;;;2.88;0.88;;;14.10;99.90;;;;;;4984297;28;20074;-73
2022/09/21 09:08:12;;;;;;;3.90;0.75;;;14.20;99.90;;;;;;4988799;28;20042;-73
2022/09/21 09:10:49;;;;;;;6.93;1.38;;;14.30;99.90;;;;;;4986484;28;20086;-73
2022/09/21 09:14:05;;;;;;;6.63;0.75;;;14.50;99.90;;;;;;4990791;28;20135;-72
2022/09/21 09:16:36;;;;;;;7.40;1.33;;;14.60;99.90;;;;;;4945380;28;20051;-73
2022/09/21 09:19:24;;;;;;;4.20;0.50;;;14.70;99.90;;;;;;4975092;28;20050;-71
2022/09/21 09:21:50;;;;;;;4.40;0.80;;;14.70;99.90;;;;;;4987489;28;20046;-73
2022/09/21 09:24:37;;;;;;;7.82;1.70;;;14.90;99.90;;;;;;4985061;28;20038;-72
2022/09/21 09:27:18;;;;;;;5.55;0.90;;;15.00;99.90;;;;;;4982763;28;20112;-72
2022/09/21 09:30:27;;;;;;;4.22;0.90;;;15.10;99.90;;;;;;4985937;28;20042;-72
2022/09/21 09:33:07;;;;;;;5.07;1.00;;;15.40;99.90;;;;;;4982566;28;20073;-72
2022/09/21 09:35:46;;;;;;;4.55;0.80;;;15.50;99.90;;;;;;4973825;28;20046;-72
2022/09/21 09:38:29;;;;;;;4.20;0.57;;;15.30;99.90;;;;;;4986345;28;20050;-72
2022/09/21 09:41:38;;;;;;;6.03;1.13;;;15.60;99.90;;;;;;4989460;28;20305;-72
2022/09/21 09:44:13;;;;;;;4.72;0.90;;;15.70;99.90;;;;;;4980158;28;20050;-72
2022/09/21 09:47:03;;;;;;;4.15;0.88;;;15.80;99.90;;;;;;4992987;28;20061;-72
2022/09/21 09:50:01;;;;;;;3.20;0.88;;;15.90;99.90;;;;;;4985775;28;20038;-72
2022/09/21 09:52:26;;;;;;;5.32;0.73;;;15.90;99.90;;;;;;4980025;28;20065;-73
2022/09/21 09:54:53;;;;;;;5.22;1.67;;;16.00;99.90;;;;;;4987789;28;20043;-72
2022/09/21 09:57:28;;;;;;;4.03;0.50;;;16.10;99.90;;;;;;4975084;28;20051;-73
2022/09/21 09:59:58;;;;;;;6.57;0.80;;;16.00;99.90;;;;;;4983365;28;20038;-71
2022/09/21 10:02:26;;;;;;;4.28;1.17;;;15.70;99.90;;;;;;4986187;28;20097;-71
2022/09/21 10:05:02;;;;;;;4.80;0.95;;;15.40;99.90;;;;;;4986853;28;20056;-72
2022/09/21 10:07:39;;;;;;;3.00;0.88;;;15.10;99.90;;;;;;4978198;28;20393;-72
2022/09/21 10:10:33;;;;;;;4.55;1.05;;;15.20;99.90;;;;;;4986661;28;20043;-72
2022/09/21 10:13:21;;;;;;;6.57;1.50;;;15.20;99.90;;;;;;4982457;28;20050;-71
2022/09/21 10:15:54;;;;;;;9.23;1.67;;;15.10;99.90;;;;;;4988341;28;20166;-71
2022/09/21 10:18:39;;;;;;;6.90;0.90;;;14.90;99.90;;;;;;4988572;28;20085;-73
2022/09/21 10:21:31;;;;;;;7.05;0.60;;;14.70;99.90;;;;;;4984180;28;20053;-72
2022/09/21 10:24:17;;;;;;;6.30;0.82;;;14.50;99.90;;;;;;4990939;28;20519;-73
2022/09/21 10:26:53;;;;;;;3.65;1.10;;;14.50;99.90;;;;;;4988911;28;20057;-74
2022/09/21 10:29:21;;;;;;;3.08;0.77;;;14.70;99.90;;;;;;5000957;28;20476;-73
2022/09/21 10:32:03;;;;;;;4.18;0.70;;;14.50;99.90;;;;;;4984847;28;20441;-73
2022/09/21 10:34:31;;;;;;;4.75;1.33;;;14.40;99.90;;;;;;4987157;28;20129;-72
2022/09/21 10:36:59;;;;;;;4.00;0.70;;;14.30;99.90;;;;;;4987575;28;20039;-73
2022/09/21 10:39:29;;;;;;;3.70;0.98;;;14.20;99.90;;;;;;4985195;28;20078;-73
2022/09/21 10:42:02;;;;;;;3.38;0.63;;;14.20;99.90;;;;;;4983369;28;20050;-74
2022/09/21 10:44:39;;;;;;;7.60;1.85;;;14.20;99.90;;;;;;4989827;28;20054;-74
2022/09/21 10:47:29;;;;;;;5.63;1.20;;;14.30;99.90;;;;;;4991069;28;20535;-73
2022/09/21 10:49:59;;;;;;;4.13;0.50;;;14.40;99.90;;;;;;4972411;28;20061;-72
2022/09/21 10:52:40;;;;;;;1.47;0.40;;;14.50;99.90;;;;;;4987279;28;20093;-72
2022/09/21 10:55:15;;;;;;;7.18;1.33;;;14.50;99.90;;;;;;4990637;28;20056;-72
2022/09/21 10:57:42;;;;;;;7.93;2.20;;;14.30;99.90;;;;;;4993232;28;20149;-72
2022/09/21 11:00:28;;;;;;;2.22;0.60;;;14.40;99.90;;;;;;4972918;28;20038;-72
2022/09/21 11:02:54;;;;;;;6.03;0.75;;;14.70;99.90;;;;;;4989475;28;20050;-72
2022/09/21 11:05:32;;;;;;;4.20;0.40;;;15.10;99.90;;;;;;4987496;28;20046;-72
2022/09/21 11:08:01;;;;;;;3.65;0.98;;;15.30;99.90;;;;;;5004106;28;20089;-73
2022/09/21 11:10:49;;;;;;;5.28;0.60;;;15.40;99.90;;;;;;4988435;28;20062;-72
2022/09/21 11:13:35;;;;;;;2.50;0.52;;;15.40;99.90;;;;;;4977955;28;20050;-72
2022/09/21 11:16:20;;;;;;;3.03;1.15;;;15.70;99.90;;;;;;4981377;28;20085;-72
2022/09/21 11:19:12;;;;;;;4.93;0.90;;;15.80;99.90;;;;;;4988353;28;20076;-72
2022/09/21 11:21:43;;;;;;;10.63;1.83;;;15.90;99.90;;;;;;4992459;28;20089;-72
2022/09/21 11:24:35;;;;;;;13.02;3.33;;;16.10;99.90;;;;;;4992761;28;20401;-71
2022/09/21 11:27:29;;;;;;;1.98;1.05;;;16.20;99.90;;;;;;4989715;28;20497;-72
2022/09/21 11:30:17;;;;;;;2.05;0.68;;;16.10;99.90;;;;;;4994653;28;20065;-71
2022/09/21 11:33:30;;;;;;;4.95;1.00;;;16.20;99.90;;;;;;4984491;28;20058;-71
2022/09/21 11:36:45;;;;;;;3.22;0.40;;;16.00;99.90;;;;;;4968492;28;20062;-71
2022/09/21 11:39:49;;;;;;;4.88;1.13;;;16.20;99.90;;;;;;4974883;28;20133;-71
2022/09/21 11:42:36;;;;;;;7.03;0.95;;;16.20;99.90;;;;;;4987169;28;20404;-71
2022/09/21 11:45:25;;;;;;;1.13;0.60;;;15.80;99.90;;;;;;4997377;28;20047;-71
2022/09/21 11:47:56;;;;;;;3.65;1.20;;;15.60;99.90;;;;;;4980661;28;20049;-71
2022/09/21 11:50:21;;;;;;;6.13;0.75;;;15.40;99.90;;;;;;4989851;28;20393;-71
2022/09/21 11:53:10;;;;;;;4.55;0.70;;;15.30;99.90;;;;;;4982310;28;20042;-71
2022/09/21 11:55:50;;;;;;;6.57;0.93;;;15.10;99.90;;;;;;5005981;28;20084;-72
2022/09/21 11:58:17;;;;;;;4.13;1.13;;;15.10;99.90;;;;;;4984403;28;20054;-71
2022/09/21 12:00:50;;;;;;;1.90;0.40;;;15.20;99.90;;;;;;4991108;28;20047;-71
2022/09/21 12:03:46;;;;;;;0.93;0.32;;;15.50;99.90;;;;;;5002225;28;20050;-71
2022/09/21 12:06:37;;;;;;;3.20;0.60;;;15.80;99.90;;;;;;4983731;28;20512;-71
2022/09/21 12:09:30;;;;;;;10.10;1.55;;;15.90;99.90;;;;;;4984541;28;20042;-71
2022/09/21 12:12:09;;;;;;;4.55;0.65;;;15.70;99.90;;;;;;4999280;28;20051;-71
2022/09/21 12:14:42;;;;;;;7.47;0.80;;;15.80;99.90;;;;;;4997628;28;20042;-71
2022/09/21 12:17:29;;;;;;;11.13;0.70;;;16.00;99.90;;;;;;4991252;28;20049;-71
2022/09/21 12:20:21;;;;;;;3.53;0.52;;;15.90;99.90;;;;;;4986732;28;20057;-72
2022/09/21 12:22:51;;;;;;;1.60;0.40;;;15.80;99.90;;;;;;4977107;28;20058;-72
2022/09/21 12:25:22;;;;;;;5.32;0.50;;;15.90;99.90;;;;;;4990212;28;20390;-71
2022/09/21 12:27:52;;;;;;;3.03;0.35;;;15.70;99.90;;;;;;4976678;28;20054;-72
2022/09/21 12:30:22;;;;;;;2.95;0.68;;;15.60;99.90;;;;;;4987636;28;20799;-72
2022/09/21 12:32:50;;;;;;;3.03;0.30;;;15.90;99.90;;;;;;4977625;28;20042;-71
2022/09/21 12:35:24;;;;;;;2.40;0.57;;;16.10;99.90;;;;;;4993120;28;20038;-71
2022/09/21 12:38:11;;;;;;;2.58;0.50;;;16.40;99.90;;;;;;4984127;28;20058;-72
2022/09/21 12:40:46;;;;;;;3.05;0.77;;;16.40;99.90;;;;;;4987587;28;20050;-72
2022/09/21 12:43:37;;;;;;;5.68;0.52;;;16.30;99.90;;;;;;4988835;28;20121;-73
2022/09/21 12:46:15;;;;;;;4.40;1.15;;;16.40;99.90;;;;;;4993934;28;20439;-72
2022/09/21 12:48:44;;;;;;;4.07;0.77;;;16.70;99.90;;;;;;4986045;28;20049;-73
2022/09/21 12:51:33;;;;;;;5.37;0.60;;;16.70;99.90;;;;;;4981266;28;20056;-73
2022/09/21 12:54:07;;;;;;;2.10;0.30;;;16.90;99.90;;;;;;4989257;28;20328;-73
2022/09/21 12:56:50;;;;;;;7.72;1.45;;;17.00;99.90;;;;;;4982551;28;20456;-73
2022/09/21 12:59:35;;;;;;;11.68;2.45;;;17.00;99.90;;;;;;4986978;28;20046;-71
2022/09/21 13:02:16;;;;;;;3.30;0.50;;;17.10;99.90;;;;;;4999278;28;20404;-72
2022/09/21 13:04:45;;;;;;;2.35;0.60;;;17.20;99.90;;;;;;4983156;28;20129;-73
2022/09/21 13:07:22;;;;;;;5.10;0.50;;;17.10;99.90;;;;;;4990507;28;20046;-73
2022/09/21 13:09:50;;;;;;;7.00;0.60;;;16.60;99.90;;;;;;4986949;28;20211;-71
2022/09/21 13:12:24;;;;;;;4.03;0.47;;;16.90;99.90;;;;;;4985196;28;20460;-72
2022/09/21 13:14:56;;;;;;;5.45;0.32;;;16.90;99.90;;;;;;4979811;28;20050;-72
2022/09/21 13:17:27;;;;;;;2.65;0.40;;;16.80;99.90;;;;;;4988056;28;20082;-73
2022/09/21 13:20:01;;;;;;;1.40;0.30;;;16.80;99.90;;;;;;4987336;28;20042;-72
2022/09/21 13:22:32;;;;;;;3.80;0.70;;;17.00;99.90;;;;;;4989967;28;20381;-74
2022/09/21 13:25:01;;;;;;;3.83;0.50;;;17.00;99.90;;;;;;4988491;28;20041;-73
2022/09/21 13:27:59;;;;;;;4.10;1.27;;;17.00;99.90;;;;;;4991866;28;20133;-72